Time;durP1;ratioP1;P1;durP2;ratioP2;P2;SDS_P1;SDS_P2;PMS_P1;PMS_P2;Temp;Humidity;BMP_temperature;BMP_pressure;BME280_temperature;BME280_humidity;BME280_pressure;Samples;Min_cycle;Max_cycle;Signal;HPM_P1;HPM_P2
2022/10/13 00:00:17;;;;;;;;;;;11.80;99.90;;;;;;5035327;28;19905;-69
2022/10/13 00:02:42;;;;;;;;;;;11.80;99.90;;;;;;5034921;28;19905;-69
2022/10/13 00:05:08;;;;;;;;;;;11.80;99.90;;;;;;5035098;28;19916;-68
2022/10/13 00:07:33;;;;;;;;;;;11.70;99.90;;;;;;5030630;28;20343;-69
2022/10/13 00:09:59;;;;;;;;;;;11.70;99.90;;;;;;5026851;28;19909;-69
2022/10/13 00:12:24;;;;;;;;;;;11.70;99.90;;;;;;5034250;28;19917;-69
2022/10/13 00:14:50;;;;;;;;;;;11.70;99.90;;;;;;5035032;28;20239;-70
2022/10/13 00:17:15;;;;;;;;;;;11.70;99.90;;;;;;5034643;28;19920;-69
2022/10/13 00:19:42;;;;;;;;;;;11.70;99.90;;;;;;5035125;28;20016;-69
2022/10/13 00:22:07;;;;;;;;;;;11.80;99.90;;;;;;5034909;28;19995;-69
2022/10/13 00:24:33;;;;;;;;;;;11.80;99.90;;;;;;5034596;28;20294;-69
2022/10/13 00:26:58;;;;;;;;;;;11.80;99.90;;;;;;5034534;28;19955;-69
2022/10/13 00:29:24;;;;;;;;;;;11.80;99.90;;;;;;5034341;28;19909;-69
2022/10/13 00:31:49;;;;;;;;;;;11.80;99.90;;;;;;5034511;28;20332;-69
2022/10/13 00:34:15;;;;;;;;;;;11.80;99.90;;;;;;5034369;28;20385;-69
2022/10/13 00:36:40;;;;;;;;;;;11.80;99.90;;;;;;5033669;28;19923;-69
2022/10/13 00:39:05;;;;;;;;;;;11.80;99.90;;;;;;5034135;28;20709;-70
2022/10/13 00:41:31;;;;;;;;;;;11.80;99.90;;;;;;5034412;28;19978;-70
2022/10/13 00:43:58;;;;;;;;;;;11.80;99.90;;;;;;5034344;28;19915;-70
2022/10/13 00:46:26;;;;;;;;;;;11.80;99.90;;;;;;5034152;28;19909;-69
2022/10/13 00:48:52;;;;;;;;;;;11.90;99.90;;;;;;5034426;28;20358;-69
2022/10/13 00:51:20;;;;;;;;;;;11.80;99.90;;;;;;5034404;28;20297;-69
2022/10/13 00:53:46;;;;;;;;;;;11.80;99.90;;;;;;5034473;28;19909;-69
2022/10/13 00:56:12;;;;;;;;;;;11.80;99.90;;;;;;5034489;28;19928;-69
2022/10/13 00:58:37;;;;;;;;;;;11.80;99.90;;;;;;5034344;28;19905;-69
2022/10/13 01:01:03;;;;;;;;;;;11.90;99.90;;;;;;5034566;28;19912;-69
2022/10/13 01:03:29;;;;;;;;;;;11.90;99.90;;;;;;5034219;28;19920;-69
2022/10/13 01:05:56;;;;;;;;;;;11.90;99.90;;;;;;5031451;28;19909;-70
2022/10/13 01:08:22;;;;;;;;;;;11.90;99.90;;;;;;5034004;28;19909;-69
2022/10/13 01:10:48;;;;;;;;;;;11.80;99.90;;;;;;5033631;28;20247;-69
2022/10/13 01:13:28;;;;;;;;;;;11.90;99.90;;;;;;5033625;28;19986;-69
2022/10/13 01:16:04;;;;;;;;;;;11.90;99.90;;;;;;5033803;28;19924;-69
2022/10/13 01:18:38;;;;;;;;;;;11.90;99.90;;;;;;5032362;28;20411;-69
2022/10/13 01:21:24;;;;;;;;;;;11.90;99.90;;;;;;5033870;28;19948;-69
2022/10/13 01:23:53;;;;;;;;;;;12.00;99.90;;;;;;5033333;28;19909;-68
2022/10/13 01:26:27;;;;;;;;;;;12.10;99.90;;;;;;5033340;28;19905;-67
2022/10/13 01:29:11;;;;;;;;;;;12.10;99.90;;;;;;5031122;28;19905;-68
2022/10/13 01:31:42;;;;;;;;;;;12.10;99.90;;;;;;5031853;28;19932;-69
2022/10/13 01:34:23;;;;;;;;;;;12.10;99.90;;;;;;5033407;28;19912;-68
2022/10/13 01:36:48;;;;;;;;;;;12.10;99.90;;;;;;5033124;28;19971;-68
2022/10/13 01:39:23;;;;;;;;;;;12.20;99.90;;;;;;5032689;28;19916;-68
2022/10/13 01:41:51;;;;;;;;;;;12.20;99.90;;;;;;5032857;28;19905;-68
2022/10/13 01:44:16;;;;;;;;;;;12.20;99.90;;;;;;5032534;28;20287;-68
2022/10/13 01:46:43;;;;;;;;;;;12.30;99.90;;;;;;5033064;28;19909;-68
2022/10/13 01:49:09;;;;;;;;;;;12.30;99.90;;;;;;5032793;28;19959;-68
2022/10/13 01:51:35;;;;;;;;;;;12.30;99.90;;;;;;5032764;28;19909;-68
2022/10/13 01:54:01;;;;;;;;;;;12.30;99.90;;;;;;5032703;28;19912;-68
2022/10/13 01:56:26;;;;;;;;;;;12.30;99.90;;;;;;5032641;28;20220;-68
2022/10/13 01:58:53;;;;;;;;;;;12.30;99.90;;;;;;5032831;28;20333;-69
2022/10/13 02:01:25;;;;;;;;;;;12.30;99.90;;;;;;5032538;28;20338;-69
2022/10/13 02:04:09;;;;;;;;;;;12.30;99.90;;;;;;5032792;28;20307;-69
2022/10/13 02:06:38;;;;;;;;;;;12.40;99.90;;;;;;5032753;28;19916;-69
2022/10/13 02:09:26;;;;;;;;;;;12.30;99.90;;;;;;5032755;28;19913;-69
2022/10/13 02:11:57;;;;;;;;;;;12.30;99.90;;;;;;5018531;28;20346;-69
2022/10/13 02:14:25;;;;;;;;;;;12.30;99.90;;;;;;5032635;28;19912;-69
2022/10/13 02:16:52;;;;;;;;;;;12.30;99.90;;;;;;5032435;28;19916;-69
2022/10/13 02:19:18;;;;;;;;;;;12.30;99.90;;;;;;5032651;28;19912;-69
2022/10/13 02:21:44;;;;;;;;;;;12.30;99.90;;;;;;5032514;28;19905;-69
2022/10/13 02:24:10;;;;;;;;;;;12.30;99.90;;;;;;5032491;28;19970;-69
2022/10/13 02:26:36;;;;;;;;;;;12.30;99.90;;;;;;5032458;28;19913;-69
2022/10/13 02:29:11;;;;;;;;;;;12.30;99.90;;;;;;5032580;28;19916;-70
2022/10/13 02:31:37;;;;;;;;;;;12.30;99.90;;;;;;5016551;28;19905;-69
2022/10/13 02:34:04;;;;;;;;;;;12.30;99.90;;;;;;5032287;28;19911;-69
2022/10/13 02:36:29;;;;;;;;;;;12.30;99.90;;;;;;5031951;28;19927;-69
2022/10/13 02:38:55;;;;;;;;;;;12.30;99.90;;;;;;5032194;28;19905;-69
2022/10/13 02:41:20;;;;;;;;;;;12.30;99.90;;;;;;5032434;28;20332;-69
2022/10/13 02:43:46;;;;;;;;;;;12.40;99.90;;;;;;5032102;28;19905;-70
2022/10/13 02:46:11;;;;;;;;;;;12.40;99.90;;;;;;5032160;28;19912;-69
2022/10/13 02:48:37;;;;;;;;;;;12.40;99.90;;;;;;5031803;28;20255;-68
2022/10/13 02:51:02;;;;;;;;;;;12.40;99.90;;;;;;5032166;28;19905;-69
2022/10/13 02:53:28;;;;;;;;;;;12.50;99.90;;;;;;5032027;28;19909;-69
2022/10/13 02:55:53;;;;;;;;;;;12.50;99.90;;;;;;5032089;28;20377;-69
2022/10/13 02:58:19;;;;;;;;;;;12.50;99.90;;;;;;5031880;28;19992;-69
2022/10/13 03:00:44;;;;;;;;;;;12.50;99.90;;;;;;5031827;28;19909;-69
2022/10/13 03:03:10;;;;;;;;;;;12.50;99.90;;;;;;5032026;28;20001;-70
2022/10/13 03:05:35;;;;;;;;;;;12.50;99.90;;;;;;5032017;28;19909;-69
2022/10/13 03:08:01;;;;;;;;;;;12.50;99.90;;;;;;5031901;28;19913;-69
2022/10/13 03:10:28;;;;;;;;;;;12.50;99.90;;;;;;5032219;28;20315;-69
2022/10/13 03:12:54;;;;;;;;;;;12.50;99.90;;;;;;5031810;28;19916;-69
2022/10/13 03:15:20;;;;;;;;;;;12.50;99.90;;;;;;5031496;28;19916;-69
2022/10/13 03:17:45;;;;;;;;;;;12.50;99.90;;;;;;5032011;28;19917;-69
2022/10/13 03:20:11;;;;;;;;;;;12.60;99.90;;;;;;5031795;28;19916;-69
2022/10/13 03:22:36;;;;;;;;;;;12.60;99.90;;;;;;5032504;28;19909;-68
2022/10/13 03:25:02;;;;;;;;;;;12.60;99.90;;;;;;5035546;28;19912;-68
2022/10/13 03:27:28;;;;;;;;;;;12.60;99.90;;;;;;5035725;28;19909;-68
2022/10/13 03:29:53;;;;;;;;;;;12.60;99.90;;;;;;5035692;28;19905;-68
2022/10/13 03:32:18;;;;;;;;;;;12.70;99.90;;;;;;5034539;28;19912;-68
2022/10/13 03:34:44;;;;;;;;;;;12.70;99.90;;;;;;5035686;28;20328;-71
2022/10/13 03:37:10;;;;;;;;;;;12.70;99.90;;;;;;5035067;28;19913;-70
2022/10/13 03:39:35;;;;;;;;;;;12.80;99.90;;;;;;5035647;28;19905;-70
2022/10/13 03:42:01;;;;;;;;;;;12.80;99.90;;;;;;5035408;28;20302;-68
2022/10/13 03:44:26;;;;;;;;;;;12.80;99.90;;;;;;5035504;28;19909;-68
2022/10/13 03:46:51;;;;;;;;;;;12.80;99.90;;;;;;5035451;28;19913;-69
2022/10/13 03:49:17;;;;;;;;;;;12.90;99.90;;;;;;5033961;28;19935;-68
2022/10/13 03:51:43;;;;;;;;;;;12.90;99.90;;;;;;5035310;28;19905;-68
2022/10/13 03:54:11;;;;;;;;;;;12.90;99.90;;;;;;5035306;28;19927;-68
2022/10/13 03:56:37;;;;;;;;;;;13.00;99.90;;;;;;5035101;28;19920;-68
2022/10/13 03:59:03;;;;;;;;;;;12.90;99.90;;;;;;5035075;28;20267;-68
2022/10/13 04:01:30;;;;;;;;;;;13.00;99.90;;;;;;5031636;28;19971;-67
2022/10/13 04:03:56;;;;;;;;;;;13.00;99.90;;;;;;5022075;28;19905;-67
2022/10/13 04:06:22;;;;;;;;;;;13.00;99.90;;;;;;5034814;28;20283;-67
2022/10/13 04:08:48;;;;;;;;;;;13.00;99.90;;;;;;5034796;28;19905;-68
2022/10/13 04:11:15;;;;;;;;;;;13.10;99.90;;;;;;5034904;28;20043;-68
2022/10/13 04:13:40;;;;;;;;;;;13.10;99.90;;;;;;5034961;28;19909;-67
2022/10/13 04:16:25;;;;;;;;;;;13.10;99.90;;;;;;5034773;28;19975;-67
2022/10/13 04:18:52;;;;;;;;;;;13.10;99.90;;;;;;5034982;28;19955;-67
2022/10/13 04:21:18;;;;;;;;;;;13.10;99.90;;;;;;5034995;28;19944;-67
2022/10/13 04:23:44;;;;;;;;;;;13.10;99.90;;;;;;5034838;28;19943;-68
2022/10/13 04:26:17;;;;;;;;;;;13.10;99.90;;;;;;5034673;28;20007;-68
2022/10/13 04:28:43;;;;;;;;;;;13.10;99.90;;;;;;5034722;28;19913;-68
2022/10/13 04:31:08;;;;;;;;;;;13.10;99.90;;;;;;5034613;28;19928;-68
2022/10/13 04:33:34;;;;;;;;;;;13.10;99.90;;;;;;5034189;28;20243;-68
2022/10/13 04:36:02;;;;;;;;;;;13.20;99.90;;;;;;5034243;28;19916;-68
2022/10/13 04:38:27;;;;;;;;;;;13.20;99.90;;;;;;5034760;28;19988;-68
2022/10/13 04:40:53;;;;;;;;;;;13.20;99.90;;;;;;5033191;28;20043;-69
2022/10/13 04:43:19;;;;;;;;;;;13.20;99.90;;;;;;5034301;28;19905;-69
2022/10/13 04:45:44;;;;;;;;;;;13.20;99.90;;;;;;5034036;28;19905;-70
2022/10/13 04:48:09;;;;;;;;;;;13.20;99.90;;;;;;5033985;28;19991;-69
2022/10/13 04:50:35;;;;;;;;;;;13.30;99.90;;;;;;5033682;28;20282;-69
2022/10/13 04:53:00;;;;;;;;;;;13.30;99.90;;;;;;5034076;28;20000;-70
2022/10/13 04:55:26;;;;;;;;;;;13.30;99.90;;;;;;5034085;28;19909;-70
2022/10/13 04:57:51;;;;;;;;;;;13.30;99.90;;;;;;5033774;28;20251;-69
2022/10/13 05:00:17;;;;;;;;;;;13.40;99.90;;;;;;5033691;28;19909;-70
2022/10/13 05:02:42;;;;;;;;;;;13.40;99.90;;;;;;5034264;28;19915;-69
2022/10/13 05:05:08;;;;;;;;;;;13.40;99.90;;;;;;5034254;28;19999;-69
2022/10/13 05:07:34;;;;;;;;;;;13.40;99.90;;;;;;5034199;28;19964;-70
2022/10/13 05:10:00;;;;;;;;;;;13.50;99.90;;;;;;5034166;28;20429;-70
2022/10/13 05:12:25;;;;;;;;;;;13.50;99.90;;;;;;5033997;28;19924;-69
2022/10/13 05:14:51;;;;;;;;;;;13.50;99.90;;;;;;5033937;28;19928;-69
2022/10/13 05:17:16;;;;;;;;;;;13.50;99.90;;;;;;5033900;28;20366;-69
2022/10/13 05:19:41;;;;;;;;;;;13.50;99.90;;;;;;5034213;28;19916;-69
2022/10/13 05:22:07;;;;;;;;;;;13.50;99.90;;;;;;5033921;28;19905;-69
2022/10/13 05:24:35;;;;;;;;;;;13.50;99.90;;;;;;5031847;28;19908;-69
2022/10/13 05:27:05;;;;;;;;;;;13.50;99.90;;;;;;5032330;28;20058;-69
2022/10/13 05:29:30;;;;;;;;;;;13.50;99.90;;;;;;5032228;28;19906;-70
2022/10/13 05:31:56;;;;;;;;;;;13.50;99.90;;;;;;5030470;28;19909;-69
2022/10/13 05:34:21;;;;;;;;;;;13.50;99.90;;;;;;5032692;28;19909;-70
2022/10/13 05:36:46;;;;;;;;;;;13.60;99.90;;;;;;5033452;28;19913;-71
2022/10/13 05:39:12;;;;;;;;;;;13.60;99.90;;;;;;5033848;28;19912;-71
2022/10/13 05:41:38;;;;;;;;;;;13.60;99.90;;;;;;5033278;28;20497;-71
2022/10/13 05:44:06;;;;;;;;;;;13.60;99.90;;;;;;5033702;28;19992;-71
2022/10/13 05:46:31;;;;;;;;;;;13.60;99.90;;;;;;5032957;28;20339;-70
2022/10/13 05:48:57;;;;;;;;;;;13.50;99.90;;;;;;5033047;28;19905;-71
2022/10/13 05:51:24;;;;;;;;;;;13.60;99.90;;;;;;5032070;28;19909;-72
2022/10/13 05:53:51;;;;;;;;;;;13.60;99.90;;;;;;5033153;28;20246;-70
2022/10/13 05:56:20;;;;;;;;;;;13.50;99.90;;;;;;5033240;28;19920;-72
2022/10/13 05:58:50;;;;;;;;;;;13.60;99.90;;;;;;5026482;28;20091;-71
2022/10/13 06:01:18;;;;;;;;;;;13.60;99.90;;;;;;5032950;28;19905;-71
2022/10/13 06:03:43;;;;;;;;;;;13.60;99.90;;;;;;5033028;28;19960;-70
2022/10/13 06:06:09;;;;;;;;;;;13.60;99.90;;;;;;5033117;28;19959;-69
2022/10/13 06:08:35;;;;;;;;;;;13.60;99.90;;;;;;5033434;28;19967;-72
2022/10/13 06:11:01;;;;;;;;;;;13.70;99.90;;;;;;5032947;28;19905;-70
2022/10/13 06:13:26;;;;;;;;;;;13.70;99.90;;;;;;5033016;28;19916;-71
2022/10/13 06:15:52;;;;;;;;;;;13.70;99.90;;;;;;5032762;28;20264;-72
2022/10/13 06:18:17;;;;;;;;;;;13.70;99.90;;;;;;5033242;28;20008;-72
2022/10/13 06:20:43;;;;;;;;;;;13.80;99.90;;;;;;5031463;28;19991;-71
2022/10/13 06:23:08;;;;;;;;;;;13.80;99.90;;;;;;5032964;28;19916;-72
2022/10/13 06:25:34;;;;;;;;;;;13.80;99.90;;;;;;5032696;28;19917;-70
2022/10/13 06:28:00;;;;;;;;;;;13.80;99.90;;;;;;5032515;28;19905;-72
2022/10/13 06:30:25;;;;;;;;;;;13.80;99.90;;;;;;5032015;28;19911;-71
2022/10/13 06:32:54;;;;;;;;;;;13.80;99.90;;;;;;5032418;28;19928;-72
2022/10/13 06:35:21;;;;;;;;;;;13.80;99.90;;;;;;5032517;28;19912;-70
2022/10/13 06:37:47;;;;;;;;;;;13.90;99.90;;;;;;5032078;28;19913;-70
2022/10/13 06:40:13;;;;;;;;;;;13.90;99.90;;;;;;5030926;28;19962;-70
2022/10/13 06:42:38;;;;;;;;;;;13.90;99.90;;;;;;5032259;28;19905;-72
2022/10/13 06:45:04;;;;;;;;;;;14.00;99.90;;;;;;5032654;28;19909;-72
2022/10/13 06:47:30;;;;;;;;;;;14.00;99.90;;;;;;5032830;28;19913;-72
2022/10/13 06:49:55;;;;;;;;;;;14.10;99.90;;;;;;5032390;28;19952;-71
2022/10/13 06:52:21;;;;;;;;;;;14.10;99.90;;;;;;5032645;28;19905;-70
2022/10/13 06:54:46;;;;;;;;;;;14.10;99.90;;;;;;5032270;28;19905;-71
2022/10/13 06:57:12;;;;;;;;;;;14.10;99.90;;;;;;5031711;28;20438;-70
2022/10/13 06:59:37;;;;;;;;;;;14.10;99.90;;;;;;5032009;28;19905;-70
2022/10/13 07:02:03;;;;;;;;;;;14.10;99.90;;;;;;5032505;28;20267;-71
2022/10/13 07:04:28;;;;;;;;;;;14.20;99.90;;;;;;5031806;28;19913;-73
2022/10/13 07:06:54;;;;;;;;;;;14.20;99.90;;;;;;5032296;28;19908;-70
2022/10/13 07:09:19;;;;;;;;;;;14.20;99.90;;;;;;5031778;28;20320;-71
2022/10/13 07:11:45;;;;;;;;;;;14.20;99.90;;;;;;5032017;28;19924;-71
2022/10/13 07:14:11;;;;;;;;;;;14.20;99.90;;;;;;5032152;28;19912;-72
2022/10/13 07:16:37;;;;;;;;;;;14.20;99.90;;;;;;5044733;28;19916;-72
2022/10/13 07:19:02;;;;;;;;;;;14.20;99.90;;;;;;5051716;28;20293;-72
2022/10/13 07:21:28;;;;;;;;;;;14.30;99.90;;;;;;5051364;28;19911;-70
2022/10/13 07:23:53;;;;;;;;;;;14.30;99.90;;;;;;5037161;28;19912;-72
2022/10/13 07:26:19;;;;;;;;;;;14.30;99.90;;;;;;5032199;28;19905;-71
2022/10/13 07:28:45;;;;;;;;;;;14.30;99.90;;;;;;5032050;28;19935;-71
2022/10/13 07:31:12;;;;;;;;;;;14.30;99.90;;;;;;5029899;28;19917;-70
2022/10/13 07:33:39;;;;;;;;;;;14.30;99.90;;;;;;5048669;28;19954;-70
2022/10/13 07:36:04;;;;;;;;;;;14.30;99.90;;;;;;5052304;28;19919;-70
2022/10/13 07:38:30;;;;;;;;;;;14.40;99.90;;;;;;5051975;28;19908;-70
2022/10/13 07:40:58;;;;;;;;;;;14.40;99.90;;;;;;5037603;28;19905;-70
2022/10/13 07:43:24;;;;;;;;;;;14.50;99.90;;;;;;5050697;28;19916;-71
2022/10/13 07:45:49;;;;;;;;;;;14.60;99.90;;;;;;5040065;28;19912;-70
2022/10/13 07:48:15;;;;;;;;;;;14.60;99.90;;;;;;5030718;28;19916;-70
2022/10/13 07:50:41;;;;;;;;;;;14.70;99.90;;;;;;5046935;28;19917;-70
2022/10/13 07:53:06;;;;;;;;;;;14.70;99.90;;;;;;5049096;28;19958;-70
2022/10/13 07:55:32;;;;;;;;;;;14.70;99.90;;;;;;5051997;28;20377;-70
2022/10/13 07:58:00;;;;;;;;;;;14.70;99.90;;;;;;5039675;28;19917;-70
2022/10/13 08:00:26;;;;;;;;;;;14.60;99.90;;;;;;5035066;28;19917;-70
2022/10/13 08:02:52;;;;;;;;;;;14.70;99.90;;;;;;5031973;28;19983;-69
2022/10/13 08:05:17;;;;;;;;;;;14.60;99.90;;;;;;5031509;28;19909;-70
2022/10/13 08:07:44;;;;;;;;;;;14.60;99.90;;;;;;5031386;28;19996;-71
2022/10/13 08:10:10;;;;;;;;;;;14.70;99.90;;;;;;5034456;28;19979;-70
2022/10/13 08:12:35;;;;;;;;;;;14.70;99.90;;;;;;5035529;28;19921;-70
2022/10/13 08:15:01;;;;;;;;;;;14.70;99.90;;;;;;5035121;28;19909;-70
2022/10/13 08:17:27;;;;;;;;;;;14.80;99.90;;;;;;5035216;28;19940;-70
2022/10/13 08:19:52;;;;;;;;;;;14.80;99.90;;;;;;5035196;28;19909;-70
2022/10/13 08:22:18;;;;;;;;;;;14.80;99.90;;;;;;5032148;28;19959;-71
2022/10/13 08:24:44;;;;;;;;;;;14.80;99.90;;;;;;5034304;28;19913;-70
2022/10/13 08:27:12;;;;;;;;;;;14.90;99.90;;;;;;5033738;28;19955;-72
2022/10/13 08:29:37;;;;;;;;;;;15.00;99.90;;;;;;5034511;28;19962;-70
2022/10/13 08:32:03;;;;;;;;;;;15.10;99.90;;;;;;5034974;28;19908;-71
2022/10/13 08:34:28;;;;;;;;;;;15.20;99.90;;;;;;5034333;28;19905;-71
2022/10/13 08:36:55;;;;;;;;;;;15.20;99.90;;;;;;5034832;28;19917;-71
2022/10/13 08:39:21;;;;;;;;;;;15.30;99.90;;;;;;5034742;28;19905;-71
2022/10/13 08:41:47;;;;;;;;;;;15.20;99.90;;;;;;5034692;28;19928;-70
2022/10/13 08:44:29;;;;;;;;;;;15.20;99.90;;;;;;5034715;28;20363;-71
2022/10/13 08:47:13;;;;;;;;;;;15.20;99.90;;;;;;5034109;28;19948;-72
2022/10/13 08:49:39;;;;;;;;;;;15.20;99.90;;;;;;5034658;28;19935;-71
2022/10/13 08:52:05;;;;;;;;;;;15.20;99.90;;;;;;5034615;28;19905;-73
2022/10/13 08:54:31;;;;;;;;;;;15.30;99.90;;;;;;5034303;28;19905;-71
2022/10/13 08:56:56;;;;;;;;;;;15.30;99.90;;;;;;5033850;28;20015;-71
2022/10/13 08:59:22;;;;;;;;;;;15.30;99.90;;;;;;5034453;28;20004;-72
2022/10/13 09:01:51;;;;;;;;;;;15.30;99.90;;;;;;5034349;28;19991;-72
2022/10/13 09:04:20;;;;;;;;;;;15.40;99.90;;;;;;5034545;28;19909;-71
2022/10/13 09:07:04;;;;;;;;;;;15.50;99.90;;;;;;5034515;28;19909;-70
2022/10/13 09:09:29;;;;;;;;;;;15.60;99.90;;;;;;5034998;28;20047;-73
2022/10/13 09:11:55;;;;;;;;;;;15.70;99.90;;;;;;5034730;28;19917;-72
2022/10/13 09:14:26;;;;;;;;;;;15.80;99.90;;;;;;5034689;28;19911;-73
2022/10/13 09:16:52;;;;;;;;;;;15.70;99.90;;;;;;5034575;28;19917;-72
2022/10/13 09:19:21;;;;;;;;;;;15.70;99.90;;;;;;5034262;28;19909;-75
2022/10/13 09:21:51;;;;;;;;;;;15.70;99.90;;;;;;5033851;28;19909;-73
2022/10/13 09:24:18;;;;;;;;;;;15.70;99.90;;;;;;5034892;28;19908;-74
2022/10/13 09:26:46;;;;;;;;;;;15.70;99.90;;;;;;5035297;28;20290;-74
2022/10/13 09:29:19;;;;;;;;;;;15.70;99.90;;;;;;5034577;28;19908;-72
2022/10/13 09:31:45;;;;;;;;;;;15.60;99.90;;;;;;5032930;28;20003;-74
2022/10/13 09:34:22;;;;;;;;;;;15.60;99.90;;;;;;5032903;28;20005;-73
2022/10/13 09:37:14;;;;;;;;;;;15.50;99.90;;;;;;5032756;28;19916;-73
2022/10/13 09:39:40;;;;;;;;;;;15.40;99.90;;;;;;5032134;28;20346;-73
2022/10/13 09:42:24;;;;;;;;;;;15.30;99.90;;;;;;5034107;28;19905;-73
2022/10/13 09:45:12;;;;;;;;;;;15.20;99.90;;;;;;5033187;28;19916;-72
2022/10/13 09:47:37;;;;;;;;;;;15.10;99.90;;;;;;5016681;28;19925;-75
2022/10/13 09:50:14;;;;;;;;;;;15.00;99.90;;;;;;5033920;28;19912;-73
2022/10/13 09:52:41;;;;;;;;;;;15.00;99.90;;;;;;5033815;28;20365;-73
2022/10/13 09:55:26;;;;;;;;;;;15.00;99.90;;;;;;5033650;28;19912;-74
2022/10/13 09:57:54;;;;;;;;;;;15.00;99.90;;;;;;5033887;28;19914;-73
2022/10/13 10:00:20;;;;;;;;;;;15.00;99.90;;;;;;5032713;28;19908;-73
2022/10/13 10:03:01;;;;;;;;;;;15.10;99.90;;;;;;5031791;28;20290;-72
2022/10/13 10:05:48;;;;;;;;;;;15.10;99.90;;;;;;5031058;28;19909;-72
2022/10/13 10:08:18;;;;;;;;;;;15.20;99.90;;;;;;5032112;28;19909;-73
2022/10/13 10:10:46;;;;;;;;;;;15.30;99.90;;;;;;5033063;28;19913;-72
2022/10/13 10:13:12;;;;;;;;;;;15.30;99.90;;;;;;5033600;28;19917;-71
2022/10/13 10:15:37;;;;;;;;;;;15.30;99.90;;;;;;5032884;28;19909;-73
2022/10/13 10:18:06;;;;;;;;;;;15.30;99.90;;;;;;5033183;28;19913;-74
2022/10/13 10:20:31;;;;;;;;;;;15.30;99.90;;;;;;5033533;28;20466;-73
2022/10/13 10:23:00;;;;;;;;;;;15.30;99.90;;;;;;5033045;28;20003;-73
2022/10/13 10:25:33;;;;;;;;;;;15.40;99.90;;;;;;5033252;28;20265;-75
2022/10/13 10:28:01;;;;;;;;;;;15.40;99.90;;;;;;5033217;28;19905;-74
2022/10/13 10:30:28;;;;;;;;;;;15.50;99.90;;;;;;5032504;28;19924;-73
2022/10/13 10:33:02;;;;;;;;;;;15.60;99.90;;;;;;5032821;28;19916;-73
2022/10/13 10:35:47;;;;;;;;;;;15.70;99.90;;;;;;5033237;28;19908;-73
2022/10/13 10:38:12;;;;;;;;;;;15.80;99.90;;;;;;5032968;28;19913;-73
2022/10/13 10:40:56;;;;;;;;;;;16.00;99.90;;;;;;5032977;28;19916;-73
2022/10/13 10:43:42;;;;;;;;;;;16.20;99.90;;;;;;5031830;28;20358;-73
2022/10/13 10:46:16;;;;;;;;;;;16.30;99.90;;;;;;5033128;28;19939;-73
2022/10/13 10:48:43;;;;;;;;;;;16.40;99.90;;;;;;5032551;28;20347;-73
2022/10/13 10:51:10;;;;;;;;;;;16.50;99.90;;;;;;5032984;28;19905;-73
2022/10/13 10:53:42;;;;;;;;;;;16.60;99.90;;;;;;5032011;28;19909;-73
2022/10/13 10:56:22;;;;;;;;;;;16.70;99.90;;;;;;5032424;28;19940;-73
2022/10/13 10:58:48;;;;;;;;;;;16.70;99.90;;;;;;5032940;28;19915;-73
2022/10/13 11:01:13;;;;;;;;;;;16.80;99.90;;;;;;5032786;28;19909;-74
2022/10/13 11:04:05;;;;;;;;;;;16.80;99.90;;;;;;5032638;28;19905;-73
2022/10/13 11:06:32;;;;;;;;;;;16.80;99.90;;;;;;5030844;28;19908;-72
2022/10/13 11:08:58;;;;;;;;;;;16.90;99.90;;;;;;5030318;28;20456;-74
2022/10/13 11:11:24;;;;;;;;;;;17.00;99.90;;;;;;5031919;28;19909;-74
2022/10/13 11:13:54;;;;;;;;;;;17.30;99.90;;;;;;5032445;28;19916;-73
2022/10/13 11:16:27;;;;;;;;;;;17.50;99.90;;;;;;5031867;28;19917;-72
2022/10/13 11:19:11;;;;;;;;;;;17.70;99.90;;;;;;5028108;28;20012;-72
2022/10/13 11:21:52;;;;;;;;;;;17.90;99.90;;;;;;5032570;28;19912;-72
2022/10/13 11:24:37;;;;;;;;;;;18.00;99.90;;;;;;5032682;28;19905;-74
2022/10/13 11:27:15;;;;;;;;;;;18.00;99.90;;;;;;5012930;28;19914;-72
2022/10/13 11:29:43;;;;;;;;;;;18.00;99.90;;;;;;5023651;28;20003;-72
2022/10/13 11:32:24;;;;;;;;;;;17.90;99.90;;;;;;5031906;28;20000;-74
2022/10/13 11:35:05;;;;;;;;;;;17.80;99.90;;;;;;5013219;28;19910;-72
2022/10/13 11:37:44;;;;;;;;;;;17.70;99.90;;;;;;5012726;28;20382;-73
2022/10/13 11:40:28;;;;;;;;;;;17.70;99.90;;;;;;5014796;28;19960;-71
2022/10/13 11:42:59;;;;;;;;;;;17.70;99.90;;;;;;5031885;28;19913;-72
2022/10/13 11:45:27;;;;;;;;;;;17.70;99.90;;;;;;5035772;28;20294;-73
2022/10/13 11:48:11;;;;;;;;;;;17.70;99.90;;;;;;5036403;28;20350;-73
2022/10/13 11:50:43;;;;;;;;;;;17.80;99.90;;;;;;5035908;28;19912;-71
2022/10/13 11:53:21;;;;;;;;;;;17.80;99.90;;;;;;5036016;28;19905;-72
2022/10/13 11:55:49;;;;;;;;;;;17.80;99.90;;;;;;5035595;28;19905;-73
2022/10/13 11:58:20;;;;;;;;;;;17.70;99.90;;;;;;5035763;28;19917;-71
2022/10/13 12:00:49;;;;;;;;;;;17.70;99.90;;;;;;5035864;28;19905;-72
2022/10/13 12:03:35;;;;;;;;;;;17.60;99.90;;;;;;5035849;28;19911;-72
2022/10/13 12:06:03;;;;;;;;;;;17.50;99.90;;;;;;5036309;28;19996;-70
2022/10/13 12:08:31;;;;;;;;;;;17.40;99.90;;;;;;5035744;28;19920;-71
2022/10/13 12:10:58;;;;;;;;;;;17.40;99.90;;;;;;5035909;28;19912;-72
2022/10/13 12:13:34;;;;;;;;;;;17.30;99.90;;;;;;5033291;28;19983;-71
2022/10/13 12:16:12;;;;;;;;;;;17.30;99.90;;;;;;5022469;28;20000;-73
2022/10/13 12:18:39;;;;;;;;;;;17.30;99.90;;;;;;5017614;28;19945;-72
2022/10/13 12:21:10;;;;;;;;;;;17.30;99.90;;;;;;5035633;28;19909;-70
2022/10/13 12:23:35;;;;;;;;;;;17.20;99.90;;;;;;5030996;28;19905;-74
2022/10/13 12:26:30;;;;;;;;;;;17.20;99.90;;;;;;5033474;28;19936;-70
2022/10/13 12:29:03;;;;;;;;;;;17.20;99.90;;;;;;5027553;28;19911;-70
2022/10/13 12:31:37;;;;;;;;;;;17.20;99.90;;;;;;5035639;28;19939;-71
2022/10/13 12:34:02;;;;;;;;;;;17.20;99.90;;;;;;5035789;28;19912;-71
2022/10/13 12:36:31;;;;;;;;;;;17.20;99.90;;;;;;5032331;28;19917;-71
2022/10/13 12:39:04;;;;;;;;;;;17.20;99.90;;;;;;5049570;28;20311;-71
2022/10/13 12:41:31;;;;;;;;;;;17.20;99.90;;;;;;5035511;28;20007;-71
2022/10/13 12:43:57;;;;;;;;;;;17.30;99.90;;;;;;5016342;28;19960;-72
2022/10/13 12:46:39;;;;;;;;;;;17.30;99.90;;;;;;5019234;28;19935;-73
2022/10/13 12:49:33;;;;;;;;;;;17.30;99.90;;;;;;5022081;28;19992;-72
2022/10/13 12:52:08;;;;;;;;;;;17.20;99.90;;;;;;5014959;28;19916;-70
2022/10/13 12:54:36;;;;;;;;;;;17.10;99.90;;;;;;5021816;28;19905;-71
2022/10/13 12:57:05;;;;;;;;;;;16.90;99.90;;;;;;5034786;28;19935;-72
2022/10/13 12:59:31;;;;;;;;;;;16.80;99.90;;;;;;5035026;28;19912;-71
2022/10/13 13:02:01;;;;;;;;;;;16.80;99.90;;;;;;5035005;28;19909;-73
2022/10/13 13:04:28;;;;;;;;;;;16.70;99.90;;;;;;5044521;28;19995;-72
2022/10/13 13:06:55;;;;;;;;;;;16.70;99.90;;;;;;5042655;28;19913;-72
2022/10/13 13:09:25;;;;;;;;;;;16.60;99.90;;;;;;5044905;28;19932;-72
2022/10/13 13:12:09;;;;;;;;;;;16.50;99.90;;;;;;5039529;28;19917;-72
2022/10/13 13:14:41;;;;;;;;;;;16.50;99.90;;;;;;5043496;28;19912;-72
2022/10/13 13:17:10;;;;;;;;;;;16.40;99.90;;;;;;5041763;28;20457;-73
2022/10/13 13:19:36;;;;;;;;;;;16.20;99.90;;;;;;5043375;28;19912;-72
2022/10/13 13:22:03;;;;;;;;;;;16.20;99.90;;;;;;5043775;28;19905;-71
2022/10/13 13:24:28;;;;;;;;;;;16.10;99.90;;;;;;5041956;28;20000;-71
2022/10/13 13:26:54;;;;;;;;;;;16.10;99.90;;;;;;5038973;28;19905;-73
2022/10/13 13:29:19;;;;;;;;;;;16.10;99.90;;;;;;5041798;28;19948;-72
2022/10/13 13:31:45;;;;;;;;;;;16.10;99.90;;;;;;5044077;28;19915;-73
2022/10/13 13:34:10;;;;;;;;;;;16.00;99.90;;;;;;5042033;28;19915;-74
2022/10/13 13:36:36;;;;;;;;;;;16.00;99.90;;;;;;5043056;28;19967;-73
2022/10/13 13:39:01;;;;;;;;;;;15.90;99.90;;;;;;5044019;28;19951;-74
2022/10/13 13:41:29;;;;;;;;;;;15.90;99.90;;;;;;5041518;28;20003;-74
2022/10/13 13:43:55;;;;;;;;;;;15.90;99.90;;;;;;5043188;28;19905;-73
2022/10/13 13:46:22;;;;;;;;;;;15.80;99.90;;;;;;5043231;28;19909;-74
2022/10/13 13:48:48;;;;;;;;;;;15.80;99.90;;;;;;5041796;28;19948;-75
2022/10/13 13:51:14;;;;;;;;;;;15.80;99.90;;;;;;5042958;28;19951;-73
2022/10/13 13:53:40;;;;;;;;;;;15.80;99.90;;;;;;5042720;28;19932;-74
2022/10/13 13:56:08;;;;;;;;;;;15.70;99.90;;;;;;5041176;28;19972;-73
2022/10/13 13:58:34;;;;;;;;;;;15.60;99.90;;;;;;5043190;28;19988;-73
2022/10/13 14:01:00;;;;;;;;;;;15.60;99.90;;;;;;5042788;28;19949;-72
2022/10/13 14:03:25;;;;;;;;;;;15.50;99.90;;;;;;5041325;28;20383;-73
2022/10/13 14:05:51;;;;;;;;;;;15.40;99.90;;;;;;5042913;28;19973;-74
2022/10/13 14:08:16;;;;;;;;;;;15.40;99.90;;;;;;5041922;28;19905;-74
2022/10/13 14:10:41;;;;;;;;;;;15.30;99.90;;;;;;5040147;28;19955;-73
2022/10/13 14:13:07;;;;;;;;;;;15.20;99.90;;;;;;5041055;28;19964;-74
2022/10/13 14:15:33;;;;;;;;;;;15.10;99.90;;;;;;5042902;28;19908;-75
2022/10/13 14:17:58;;;;;;;;;;;15.00;99.90;;;;;;5039027;28;19916;-75
2022/10/13 14:20:24;;;;;;;;;;;14.90;99.90;;;;;;5043231;28;19913;-74
2022/10/13 14:22:49;;;;;;;;;;;14.90;99.90;;;;;;5041024;28;19905;-74